Pagrindinis puslapis
METAR-TAF:

METAR-TAF

Oro uostai :

Phetčabunas, Tailandas

platuma: 16-40-33N, ilguma: 101-11-42E, Aukštis: 137 m

Dabartinis oras

Ataskaita buvo paskelbta 2 valandos ir 48 minutes, ne 11:00 UTC
Ramus vėjas
Temperatūra 28°C
Drėgmė 51%
Slėgis 1012 hPa
Matomumas 10 km arba daugiau
Mažai debesys ne aukštis 2000 ft

METAR: VTPB 201100Z 00000KT 9999 FEW020 28/17 Q1012 NOSIG

Laikas: 20:48 (13:48 UTC)

Prognozė

Ataskaita buvo paskelbta 2 valandos ir 48 minutes, ne 11:00 UTC
Prognozė galioja nuo 20 metu 12 UTC su 21 metu 12 UTC
Vėjas 5 kt iš Šiaurės
Matomumas 10 km arba daugiau
Mažai debesys ne aukštis 2000 ft

TAF: VTPB 201100Z 2012/2112 36005KT 9999 FEW020

Orai ataskaitas ir orų prognozės (METAR, TAF).

turimą stotys yra geltonos ir raudonos taškus žemėlapyje.

Perkelti pele per norėdami pamatyti stoties vardą.

Tada spustelėkite, norėdami matyti oro stebėjimo ir prognozės.

Norėdami pakeisti žemėlapį: spustelėkite ant žalios mygtukų su juodo kryžiaus žemyn,; žalią mygtuką su brūkšneliu, jei norite nutolinti; arba žalių rodyklių gretimoms žemėlapius.


METAR-TAF: